createdAt,value
2022-09-18T00:00:56.898Z,13.83
2022-09-18T00:03:33.429Z,13.47
2022-09-18T00:06:12.783Z,14.70
2022-09-18T00:08:48.171Z,16.77
2022-09-18T00:11:25.505Z,15.90
2022-09-18T00:14:02.998Z,14.50
2022-09-18T00:16:38.116Z,13.57
2022-09-18T00:19:12.520Z,15.03
2022-09-18T00:21:46.183Z,14.83
2022-09-18T00:24:24.633Z,16.53
2022-09-18T00:27:01.501Z,14.83
2022-09-18T00:29:38.604Z,15.33
2022-09-18T00:32:16.974Z,16.53
2022-09-18T00:34:53.595Z,17.40
2022-09-18T00:37:27.588Z,15.57
2022-09-18T00:40:01.923Z,15.97
2022-09-18T00:42:39.565Z,16.33
2022-09-18T00:45:14.488Z,17.77
2022-09-18T00:47:52.786Z,16.20
2022-09-18T00:50:32.161Z,16.10
2022-09-18T00:53:13.037Z,16.50
2022-09-18T00:55:48.080Z,17.03
2022-09-18T00:58:25.018Z,15.90
2022-09-18T01:01:00.558Z,16.90
2022-09-18T01:03:38.042Z,16.33
2022-09-18T01:06:19.930Z,17.60
2022-09-18T01:09:09.671Z,17.10
2022-09-18T01:11:56.548Z,17.87
2022-09-18T01:14:41.206Z,17.03
2022-09-18T01:17:23.117Z,17.37
2022-09-18T01:20:28.778Z,18.00
2022-09-18T01:23:22.540Z,18.33
2022-09-18T01:26:12.874Z,18.83
2022-09-18T01:29:04.960Z,17.60
2022-09-18T01:31:46.854Z,18.07
2022-09-18T01:34:36.268Z,17.47
2022-09-18T01:37:18.031Z,16.23
2022-09-18T01:39:59.650Z,17.73
2022-09-18T01:42:36.557Z,17.90
2022-09-18T01:45:20.055Z,17.17
2022-09-18T01:48:00.364Z,18.50
2022-09-18T01:50:43.162Z,17.63
2022-09-18T01:53:24.266Z,19.37
2022-09-18T01:56:07.473Z,19.13
2022-09-18T01:58:51.186Z,20.67
2022-09-18T02:01:32.475Z,20.77
2022-09-18T02:04:11.960Z,21.33
2022-09-18T02:06:56.324Z,20.57
2022-09-18T02:09:32.006Z,20.20
2022-09-18T02:12:15.418Z,20.70
2022-09-18T02:14:54.570Z,23.48
2022-09-18T02:18:08.756Z,22.37
2022-09-18T02:21:07.438Z,24.40
2022-09-18T02:23:46.460Z,22.30
2022-09-18T02:26:24.328Z,22.30
2022-09-18T02:29:01.489Z,21.47
2022-09-18T02:31:39.328Z,22.50
2022-09-18T02:34:25.339Z,22.23
2022-09-18T02:37:21.778Z,22.10
2022-09-18T02:40:21.135Z,22.03
2022-09-18T02:43:06.471Z,23.67
2022-09-18T02:45:55.337Z,22.87
2022-09-18T02:49:00.521Z,20.90
2022-09-18T02:51:49.871Z,22.67
2022-09-18T02:54:34.491Z,22.30
2022-09-18T02:57:16.285Z,23.90
2022-09-18T02:59:56.993Z,24.13
2022-09-18T03:02:33.132Z,25.37
2022-09-18T03:05:09.441Z,26.43
2022-09-18T03:08:16.167Z,25.53
2022-09-18T03:10:51.891Z,26.90
2022-09-18T03:13:28.547Z,25.63
2022-09-18T03:16:05.494Z,26.67
2022-09-18T03:18:40.564Z,26.20
2022-09-18T03:21:17.206Z,26.83
2022-09-18T03:24:07.393Z,26.23
2022-09-18T03:26:53.747Z,26.77
2022-09-18T03:29:34.077Z,26.80
2022-09-18T03:32:09.986Z,27.27
2022-09-18T03:34:55.507Z,29.07
2022-09-18T03:37:33.225Z,29.07
2022-09-18T03:40:19.734Z,28.80
2022-09-18T03:42:58.044Z,29.03
2022-09-18T03:45:36.328Z,29.33
2022-09-18T03:48:11.685Z,29.53
2022-09-18T03:50:50.822Z,29.73
2022-09-18T03:53:38.869Z,31.90
2022-09-18T03:56:42.838Z,31.60
2022-09-18T03:59:33.795Z,30.07
2022-09-18T04:02:48.027Z,31.33
2022-09-18T04:05:43.570Z,33.27
2022-09-18T04:08:40.002Z,31.70
2022-09-18T04:11:39.604Z,31.07
2022-09-18T04:14:19.575Z,32.63
2022-09-18T04:16:53.999Z,31.50
2022-09-18T04:19:32.537Z,29.77
2022-09-18T04:22:08.971Z,32.60
2022-09-18T04:24:46.766Z,30.80
2022-09-18T04:27:40.061Z,31.37
2022-09-18T04:30:15.891Z,30.63
2022-09-18T04:33:06.457Z,31.15
2022-09-18T04:35:44.405Z,28.98
2022-09-18T04:38:29.983Z,33.50
2022-09-18T04:41:06.068Z,33.58
2022-09-18T04:43:46.012Z,33.08
2022-09-18T04:46:26.458Z,32.38
2022-09-18T04:49:24.963Z,34.55
2022-09-18T04:52:02.110Z,34.60
2022-09-18T04:54:37.131Z,37.38
2022-09-18T04:57:17.897Z,37.08
2022-09-18T04:59:59.940Z,36.67
2022-09-18T05:02:43.289Z,36.25
2022-09-18T05:05:20.337Z,35.83
2022-09-18T05:07:56.008Z,35.15
2022-09-18T05:10:32.825Z,34.78
2022-09-18T05:13:12.267Z,34.00
2022-09-18T05:16:01.221Z,34.70
2022-09-18T05:18:45.520Z,32.17
2022-09-18T05:21:22.753Z,32.85
2022-09-18T05:23:59.749Z,34.92
2022-09-18T05:26:44.200Z,32.67
2022-09-18T05:29:19.179Z,33.25
2022-09-18T05:36:01.736Z,34.33
2022-09-18T05:39:17.623Z,32.53
2022-09-18T05:42:08.305Z,34.85
2022-09-18T05:45:04.690Z,34.55
2022-09-18T05:48:19.123Z,33.50
2022-09-18T05:51:14.894Z,34.13
2022-09-18T05:57:10.858Z,29.65
2022-09-18T06:03:19.138Z,28.52
2022-09-18T06:06:04.573Z,25.60
2022-09-18T06:08:43.416Z,22.20
2022-09-18T06:14:56.912Z,14.68
2022-09-18T06:17:50.124Z,14.60
2022-09-18T06:20:50.112Z,13.57
2022-09-18T06:23:38.588Z,12.60
2022-09-18T06:26:30.447Z,13.98
2022-09-18T06:29:20.976Z,13.93
2022-09-18T06:32:21.288Z,13.55
2022-09-18T06:35:05.599Z,13.30
2022-09-18T06:41:06.939Z,13.40
2022-09-18T06:43:58.104Z,14.05
2022-09-18T06:47:03.275Z,13.40
2022-09-18T06:54:09.565Z,13.43
2022-09-18T07:04:37.211Z,14.07
2022-09-18T07:13:53.176Z,15.07
2022-09-18T07:20:10.723Z,15.77
2022-09-18T07:39:42.188Z,12.63
2022-09-18T08:15:13.363Z,11.88
2022-09-18T08:18:23.530Z,10.50
2022-09-18T08:21:37.343Z,12.75
2022-09-18T08:24:31.096Z,11.38
2022-09-18T08:30:49.900Z,11.50
2022-09-18T08:33:42.929Z,10.07
2022-09-18T08:37:24.396Z,10.82
2022-09-18T08:40:49.114Z,12.07
2022-09-18T08:44:01.295Z,11.50
2022-09-18T08:47:20.167Z,12.02
2022-09-18T08:50:37.622Z,12.47
2022-09-18T08:53:33.245Z,11.87
2022-09-18T08:56:53.701Z,12.77
2022-09-18T09:00:10.445Z,15.00
2022-09-18T09:03:29.736Z,14.13
2022-09-18T09:06:15.705Z,15.30
2022-09-18T09:09:26.171Z,14.93
2022-09-18T09:12:24.013Z,15.10
2022-09-18T09:15:42.899Z,15.23
2022-09-18T09:18:37.888Z,15.93
2022-09-18T09:21:39.433Z,16.03
2022-09-18T09:24:41.910Z,15.90
2022-09-18T09:27:46.653Z,16.20
2022-09-18T09:30:50.526Z,16.37
2022-09-18T09:34:00.982Z,16.20
2022-09-18T09:37:09.094Z,15.33
2022-09-18T09:39:53.600Z,16.83
2022-09-18T09:42:37.944Z,17.77
2022-09-18T09:45:30.122Z,16.60
2022-09-18T09:48:22.188Z,19.33
2022-09-18T09:51:26.226Z,18.40
2022-09-18T09:54:10.737Z,22.53
2022-09-18T09:57:06.134Z,23.20
2022-09-18T09:59:59.325Z,23.60
2022-09-18T10:03:26.777Z,24.03
2022-09-18T10:06:29.801Z,22.57
2022-09-18T10:09:36.087Z,23.43
2022-09-18T10:13:00.262Z,24.40
2022-09-18T10:16:06.676Z,24.90
2022-09-18T10:19:06.438Z,23.87
2022-09-18T10:22:33.550Z,23.33
2022-09-18T10:25:41.864Z,22.17
2022-09-18T10:28:28.870Z,20.53
2022-09-18T10:31:31.599Z,20.67
2022-09-18T10:38:33.579Z,21.00
2022-09-18T10:41:44.773Z,20.10
2022-09-18T10:44:40.224Z,20.03
2022-09-18T10:47:36.748Z,20.80
2022-09-18T10:50:35.891Z,21.20
2022-09-18T10:53:44.620Z,20.70
2022-09-18T10:59:48.831Z,19.87
2022-09-18T11:02:34.953Z,19.33
2022-09-18T11:05:38.036Z,18.73
2022-09-18T11:08:39.223Z,19.27
2022-09-18T11:11:25.373Z,17.53
2022-09-18T11:14:37.843Z,22.50
2022-09-18T11:17:32.446Z,21.23
2022-09-18T11:20:39.274Z,20.17
2022-09-18T11:23:45.759Z,21.13
2022-09-18T11:26:40.588Z,21.23
2022-09-18T11:29:34.127Z,21.40
2022-09-18T11:32:37.337Z,21.17
2022-09-18T11:35:27.652Z,21.50
2022-09-18T11:38:13.367Z,26.17
2022-09-18T11:40:56.105Z,25.63
2022-09-18T11:43:52.935Z,26.77
2022-09-18T11:46:44.845Z,28.10
2022-09-18T11:49:36.952Z,27.37
2022-09-18T11:52:24.361Z,25.90
2022-09-18T11:55:23.251Z,24.83
2022-09-18T11:58:24.317Z,24.40
2022-09-18T12:01:22.692Z,24.43
2022-09-18T12:04:16.769Z,23.87
2022-09-18T12:07:11.243Z,23.60
2022-09-18T12:10:04.988Z,26.00
2022-09-18T12:12:51.039Z,25.73
2022-09-18T12:19:11.610Z,27.70
2022-09-18T12:21:57.547Z,28.57
2022-09-18T12:24:41.963Z,30.07
2022-09-18T12:27:27.911Z,29.63
2022-09-18T12:30:17.094Z,30.23
2022-09-18T12:33:13.596Z,30.57
2022-09-18T12:36:24.201Z,31.17
2022-09-18T12:39:36.404Z,30.47
2022-09-18T12:42:29.247Z,31.43
2022-09-18T12:45:41.138Z,31.93
2022-09-18T12:48:51.352Z,32.53
2022-09-18T12:51:55.431Z,32.70
2022-09-18T12:55:27.490Z,34.80
2022-09-18T12:58:20.165Z,35.00
2022-09-18T13:01:07.407Z,34.40
2022-09-18T13:03:59.523Z,33.87
2022-09-18T13:07:01.427Z,36.60
2022-09-18T13:09:42.788Z,34.60
2022-09-18T13:12:33.982Z,36.07
2022-09-18T13:15:21.662Z,33.53
2022-09-18T13:18:05.457Z,33.13
2022-09-18T13:20:50.767Z,33.93
2022-09-18T13:23:47.915Z,35.13
2022-09-18T13:26:44.220Z,33.30
2022-09-18T13:30:01.124Z,33.47
2022-09-18T13:32:57.753Z,34.33
2022-09-18T13:35:55.946Z,35.30
2022-09-18T13:38:40.980Z,35.50
2022-09-18T13:41:36.976Z,36.20
2022-09-18T13:44:27.294Z,35.83
2022-09-18T13:47:21.416Z,34.87
2022-09-18T13:50:23.945Z,36.57
2022-09-18T13:53:05.708Z,35.03
2022-09-18T13:56:03.302Z,37.10
2022-09-18T13:59:18.855Z,35.23
2022-09-18T14:02:30.085Z,35.07
2022-09-18T14:05:42.550Z,34.90
2022-09-18T14:08:45.880Z,35.07
2022-09-18T14:11:33.234Z,35.30
2022-09-18T14:14:31.635Z,33.83
2022-09-18T14:17:22.665Z,33.40
2022-09-18T14:20:09.300Z,35.13
2022-09-18T14:22:52.333Z,34.40
2022-09-18T14:26:01.035Z,33.63
2022-09-18T14:28:45.603Z,33.23
2022-09-18T14:31:49.707Z,33.63
2022-09-18T14:34:37.023Z,32.93
2022-09-18T14:37:39.305Z,31.47
2022-09-18T14:40:43.173Z,32.37
2022-09-18T14:43:30.709Z,32.87
2022-09-18T14:46:21.760Z,32.27
2022-09-18T14:49:10.684Z,32.07
2022-09-18T14:52:17.127Z,31.87
2022-09-18T14:55:33.784Z,32.17
2022-09-18T14:58:39.785Z,31.17
2022-09-18T15:01:30.824Z,30.27
2022-09-18T15:04:28.174Z,30.97
2022-09-18T15:07:23.007Z,30.80
2022-09-18T15:10:19.831Z,31.13
2022-09-18T15:13:23.190Z,30.70
2022-09-18T15:16:12.568Z,31.47
2022-09-18T15:18:59.680Z,29.33
2022-09-18T15:22:05.598Z,31.70
2022-09-18T15:26:03.072Z,27.93
2022-09-18T15:29:34.675Z,31.03
2022-09-18T15:32:46.504Z,29.40
2022-09-18T15:36:00.807Z,29.70
2022-09-18T15:56:04.597Z,24.57
2022-09-18T15:59:03.180Z,25.20
2022-09-18T16:01:42.368Z,25.10
2022-09-18T16:04:45.675Z,26.83
2022-09-18T16:07:30.979Z,25.40
2022-09-18T16:10:22.788Z,26.23
2022-09-18T16:13:36.293Z,25.23
2022-09-18T16:16:32.934Z,23.10
2022-09-18T16:19:34.584Z,23.27
2022-09-18T16:22:22.710Z,20.83
2022-09-18T16:25:08.780Z,20.50
2022-09-18T16:27:55.277Z,19.37
2022-09-18T16:30:41.924Z,20.57
2022-09-18T16:33:29.274Z,19.70
2022-09-18T16:36:26.076Z,17.47
2022-09-18T16:39:11.357Z,15.50
2022-09-18T16:41:49.476Z,15.33
2022-09-18T16:44:27.235Z,13.80
2022-09-18T16:47:14.370Z,16.30
2022-09-18T16:49:55.454Z,15.80
2022-09-18T16:52:37.509Z,16.43
2022-09-18T16:55:19.895Z,16.67
2022-09-18T16:58:06.900Z,15.97
2022-09-18T17:00:48.561Z,14.40
2022-09-18T17:03:41.992Z,14.70
2022-09-18T17:06:20.766Z,16.57
2022-09-18T17:09:04.215Z,14.90
2022-09-18T17:11:40.946Z,15.80
2022-09-18T17:14:18.437Z,14.57
2022-09-18T17:16:56.516Z,16.23
2022-09-18T17:19:40.767Z,16.03
2022-09-18T17:22:22.723Z,17.70
2022-09-18T17:25:04.377Z,17.63
2022-09-18T17:27:44.262Z,18.27
2022-09-18T17:30:22.604Z,18.43
2022-09-18T17:33:08.715Z,20.53
2022-09-18T17:35:47.286Z,20.83
2022-09-18T17:38:27.896Z,20.97
2022-09-18T17:41:11.467Z,22.60
2022-09-18T17:43:50.091Z,23.20
2022-09-18T17:46:26.072Z,24.50
2022-09-18T17:49:07.962Z,26.10
2022-09-18T17:51:52.537Z,26.33
2022-09-18T17:54:33.475Z,27.23
2022-09-18T17:57:12.895Z,26.27
2022-09-18T17:59:49.664Z,25.73
2022-09-18T18:02:49.152Z,25.40
2022-09-18T18:05:25.638Z,24.67
2022-09-18T18:08:34.652Z,24.60
2022-09-18T18:11:20.016Z,24.43
2022-09-18T18:14:55.711Z,22.37
2022-09-18T18:17:41.513Z,21.70
2022-09-18T18:20:44.003Z,21.53
2022-09-18T18:24:00.448Z,21.63
2022-09-18T18:26:38.518Z,21.23
2022-09-18T18:29:27.448Z,21.10
2022-09-18T18:32:03.623Z,20.03
2022-09-18T18:34:56.813Z,21.87
2022-09-18T18:37:37.911Z,20.03
2022-09-18T18:40:36.078Z,20.77
2022-09-18T18:43:22.142Z,19.50
2022-09-18T18:45:58.556Z,19.90
2022-09-18T18:49:03.367Z,20.80
2022-09-18T18:51:49.387Z,20.43
2022-09-18T18:54:45.070Z,20.30
2022-09-18T18:57:23.521Z,20.97
2022-09-18T19:00:19.955Z,20.20
2022-09-18T19:02:55.752Z,21.00
2022-09-18T19:05:47.418Z,21.60
2022-09-18T19:08:28.227Z,22.13
2022-09-18T19:11:33.066Z,21.10
2022-09-18T19:14:08.964Z,20.77
2022-09-18T19:16:48.384Z,21.07
2022-09-18T19:19:49.308Z,21.03
2022-09-18T19:22:40.797Z,21.70
2022-09-18T19:25:48.060Z,21.00
2022-09-18T19:28:33.378Z,22.37
2022-09-18T19:31:46.918Z,20.60
2022-09-18T19:34:36.094Z,20.77
2022-09-18T19:37:14.129Z,21.10
2022-09-18T19:39:51.705Z,20.70
2022-09-18T19:42:34.703Z,20.87
2022-09-18T19:45:11.128Z,20.97
2022-09-18T19:48:18.036Z,20.93
2022-09-18T19:51:20.894Z,21.17
2022-09-18T19:53:59.721Z,21.40
2022-09-18T19:56:42.891Z,20.70
2022-09-18T19:59:34.807Z,20.40
2022-09-18T20:02:18.537Z,21.27
2022-09-18T20:04:55.730Z,19.53
2022-09-18T20:07:31.649Z,20.17
2022-09-18T20:10:31.909Z,21.30
2022-09-18T20:13:05.587Z,20.13
2022-09-18T20:15:50.270Z,21.50
2022-09-18T20:18:33.105Z,21.73
2022-09-18T20:21:38.417Z,22.10
2022-09-18T20:24:42.751Z,22.03
2022-09-18T20:27:21.963Z,21.37
2022-09-18T20:29:58.878Z,20.80
2022-09-18T20:32:32.484Z,21.47
2022-09-18T20:35:08.006Z,22.40
2022-09-18T20:37:45.679Z,21.53
2022-09-18T20:40:21.093Z,21.60
2022-09-18T20:42:54.891Z,21.00
2022-09-18T20:45:29.611Z,22.40
2022-09-18T20:48:28.500Z,22.60
2022-09-18T20:51:23.655Z,22.40
2022-09-18T20:54:20.898Z,20.83
2022-09-18T20:56:56.365Z,21.83
2022-09-18T20:59:30.428Z,21.90
2022-09-18T21:02:03.953Z,22.10
2022-09-18T21:04:38.087Z,22.60
2022-09-18T21:07:12.439Z,22.80
2022-09-18T21:09:50.767Z,24.13
2022-09-18T21:12:26.870Z,22.80
2022-09-18T21:15:01.146Z,24.83
2022-09-18T21:17:35.396Z,25.87
2022-09-18T21:20:09.791Z,24.17
2022-09-18T21:22:56.383Z,24.23
2022-09-18T21:25:46.470Z,22.93
2022-09-18T21:28:38.330Z,23.80
2022-09-18T21:31:34.368Z,23.33
2022-09-18T21:34:12.697Z,22.83
2022-09-18T21:36:46.658Z,25.73
2022-09-18T21:39:20.676Z,26.53
2022-09-18T21:41:55.046Z,27.60
2022-09-18T21:44:33.051Z,29.33
2022-09-18T21:47:31.484Z,27.40
2022-09-18T21:50:14.915Z,25.87
2022-09-18T21:53:17.536Z,27.93
2022-09-18T21:55:54.007Z,33.93
2022-09-18T21:58:40.523Z,32.23
2022-09-18T22:01:22.496Z,34.33
2022-09-18T22:04:00.672Z,35.73
2022-09-18T22:06:53.142Z,34.83
2022-09-18T22:09:35.431Z,34.80
2022-09-18T22:12:33.925Z,32.43
2022-09-18T22:15:14.198Z,32.90
2022-09-18T22:18:00.271Z,31.33
2022-09-18T22:20:34.846Z,30.27
2022-09-18T22:23:08.785Z,30.13
2022-09-18T22:25:42.791Z,29.83
2022-09-18T22:28:18.237Z,30.70
2022-09-18T22:30:52.805Z,27.90
2022-09-18T22:33:29.562Z,30.87
2022-09-18T22:36:09.096Z,29.27
2022-09-18T22:39:11.284Z,31.87
2022-09-18T22:42:18.025Z,28.63
2022-09-18T22:44:53.265Z,32.23
2022-09-18T22:47:28.133Z,31.83
2022-09-18T22:50:08.547Z,32.20
2022-09-18T22:52:43.770Z,32.87
2022-09-18T22:55:18.674Z,35.10
2022-09-18T22:57:55.982Z,34.60
2022-09-18T23:00:38.342Z,33.97
2022-09-18T23:03:41.412Z,35.70
2022-09-18T23:06:25.469Z,35.57
2022-09-18T23:09:15.747Z,35.10
2022-09-18T23:11:52.401Z,36.63
2022-09-18T23:14:32.691Z,37.07
2022-09-18T23:17:10.844Z,35.70
2022-09-18T23:19:46.491Z,36.67
2022-09-18T23:22:26.879Z,37.20
2022-09-18T23:25:02.391Z,38.33
2022-09-18T23:28:03.305Z,36.13
2022-09-18T23:31:11.654Z,34.97
2022-09-18T23:33:48.055Z,36.30
2022-09-18T23:36:34.500Z,35.17
2022-09-18T23:39:25.282Z,34.17
2022-09-18T23:42:10.216Z,36.40
2022-09-18T23:44:50.123Z,36.00
2022-09-18T23:47:35.485Z,35.90
2022-09-18T23:50:18.238Z,34.90
2022-09-18T23:52:53.727Z,35.77
2022-09-18T23:55:31.006Z,34.90
2022-09-18T23:58:06.419Z,35.23
